sensor_id;sensor_type;location;lat;lon;timestamp;P1;durP1;ratioP1;P2;durP2;ratioP2
38937;SDS011;24727;51.974;20.868;2023-05-10T00:00:36;8.48;;;4.90;;
38937;SDS011;24727;51.974;20.868;2023-05-10T00:03:02;8.73;;;4.65;;
38937;SDS011;24727;51.974;20.868;2023-05-10T00:05:31;8.07;;;4.28;;
38937;SDS011;24727;51.974;20.868;2023-05-10T00:07:58;7.63;;;4.35;;
38937;SDS011;24727;51.974;20.868;2023-05-10T00:10:25;6.85;;;3.72;;
38937;SDS011;24727;51.974;20.868;2023-05-10T00:12:52;6.70;;;4.70;;
38937;SDS011;24727;51.974;20.868;2023-05-10T00:15:19;7.90;;;5.03;;
38937;SDS011;24727;51.974;20.868;2023-05-10T00:17:46;7.03;;;4.25;;
38937;SDS011;24727;51.974;20.868;2023-05-10T00:20:12;8.60;;;4.70;;
38937;SDS011;24727;51.974;20.868;2023-05-10T00:22:37;6.88;;;4.35;;
38937;SDS011;24727;51.974;20.868;2023-05-10T00:25:04;7.05;;;4.32;;
38937;SDS011;24727;51.974;20.868;2023-05-10T00:27:31;9.65;;;4.80;;
38937;SDS011;24727;51.974;20.868;2023-05-10T00:29:57;11.20;;;4.70;;
38937;SDS011;24727;51.974;20.868;2023-05-10T00:32:24;10.07;;;5.07;;
38937;SDS011;24727;51.974;20.868;2023-05-10T00:34:50;7.13;;;4.70;;
38937;SDS011;24727;51.974;20.868;2023-05-10T00:37:16;9.07;;;4.80;;
38937;SDS011;24727;51.974;20.868;2023-05-10T00:39:41;8.68;;;4.75;;
38937;SDS011;24727;51.974;20.868;2023-05-10T00:42:07;8.88;;;5.22;;
38937;SDS011;24727;51.974;20.868;2023-05-10T00:44:33;7.70;;;4.22;;
38937;SDS011;24727;51.974;20.868;2023-05-10T00:47:00;7.50;;;4.55;;
38937;SDS011;24727;51.974;20.868;2023-05-10T00:49:28;7.50;;;4.15;;
38937;SDS011;24727;51.974;20.868;2023-05-10T00:51:55;7.88;;;4.93;;
38937;SDS011;24727;51.974;20.868;2023-05-10T00:54:21;9.60;;;4.93;;
38937;SDS011;24727;51.974;20.868;2023-05-10T00:56:48;8.15;;;4.47;;
38937;SDS011;24727;51.974;20.868;2023-05-10T00:59:17;6.07;;;4.25;;
38937;SDS011;24727;51.974;20.868;2023-05-10T01:01:44;9.63;;;4.85;;
38937;SDS011;24727;51.974;20.868;2023-05-10T01:04:11;8.18;;;4.18;;
38937;SDS011;24727;51.974;20.868;2023-05-10T01:06:38;9.48;;;4.38;;
38937;SDS011;24727;51.974;20.868;2023-05-10T01:09:05;9.00;;;4.40;;
38937;SDS011;24727;51.974;20.868;2023-05-10T01:11:35;7.63;;;3.95;;
38937;SDS011;24727;51.974;20.868;2023-05-10T01:14:03;8.60;;;5.20;;
38937;SDS011;24727;51.974;20.868;2023-05-10T01:16:36;7.60;;;4.43;;
38937;SDS011;24727;51.974;20.868;2023-05-10T01:19:05;9.05;;;5.20;;
38937;SDS011;24727;51.974;20.868;2023-05-10T01:21:38;9.80;;;5.45;;
38937;SDS011;24727;51.974;20.868;2023-05-10T01:41:47;6.55;;;4.47;;
38937;SDS011;24727;51.974;20.868;2023-05-10T01:47:14;10.20;;;4.97;;
38937;SDS011;24727;51.974;20.868;2023-05-10T01:49:50;12.18;;;5.32;;
38937;SDS011;24727;51.974;20.868;2023-05-10T01:52:22;12.57;;;5.72;;
38937;SDS011;24727;51.974;20.868;2023-05-10T01:54:55;9.32;;;5.18;;
38937;SDS011;24727;51.974;20.868;2023-05-10T01:57:34;11.25;;;5.85;;
38937;SDS011;24727;51.974;20.868;2023-05-10T02:00:03;8.48;;;5.10;;
38937;SDS011;24727;51.974;20.868;2023-05-10T02:02:35;7.40;;;3.88;;
38937;SDS011;24727;51.974;20.868;2023-05-10T02:05:05;7.70;;;5.00;;
38937;SDS011;24727;51.974;20.868;2023-05-10T02:07:33;9.00;;;5.07;;
38937;SDS011;24727;51.974;20.868;2023-05-10T02:12:37;9.02;;;4.82;;
38937;SDS011;24727;51.974;20.868;2023-05-10T02:15:10;14.90;;;6.95;;
38937;SDS011;24727;51.974;20.868;2023-05-10T02:17:38;6.82;;;4.13;;
38937;SDS011;24727;51.974;20.868;2023-05-10T02:20:08;8.13;;;3.90;;
38937;SDS011;24727;51.974;20.868;2023-05-10T02:22:35;7.28;;;4.50;;
38937;SDS011;24727;51.974;20.868;2023-05-10T02:25:02;9.52;;;5.07;;
38937;SDS011;24727;51.974;20.868;2023-05-10T02:27:30;12.35;;;5.97;;
38937;SDS011;24727;51.974;20.868;2023-05-10T02:29:57;9.00;;;5.15;;
38937;SDS011;24727;51.974;20.868;2023-05-10T02:32:24;13.00;;;5.30;;
38937;SDS011;24727;51.974;20.868;2023-05-10T02:34:53;10.20;;;5.78;;
38937;SDS011;24727;51.974;20.868;2023-05-10T02:37:21;9.07;;;4.50;;
38937;SDS011;24727;51.974;20.868;2023-05-10T02:39:48;9.68;;;4.97;;
38937;SDS011;24727;51.974;20.868;2023-05-10T02:42:19;10.52;;;5.50;;
38937;SDS011;24727;51.974;20.868;2023-05-10T02:44:49;13.15;;;5.45;;
38937;SDS011;24727;51.974;20.868;2023-05-10T02:47:18;8.63;;;5.18;;
38937;SDS011;24727;51.974;20.868;2023-05-10T02:49:46;8.80;;;4.60;;
38937;SDS011;24727;51.974;20.868;2023-05-10T02:52:16;7.82;;;5.18;;
38937;SDS011;24727;51.974;20.868;2023-05-10T02:54:49;8.20;;;4.80;;
38937;SDS011;24727;51.974;20.868;2023-05-10T02:57:19;8.52;;;5.25;;
38937;SDS011;24727;51.974;20.868;2023-05-10T02:59:51;8.60;;;4.35;;
38937;SDS011;24727;51.974;20.868;2023-05-10T03:02:18;7.80;;;4.93;;
38937;SDS011;24727;51.974;20.868;2023-05-10T03:04:45;9.65;;;5.38;;
38937;SDS011;24727;51.974;20.868;2023-05-10T03:07:11;9.48;;;5.20;;
38937;SDS011;24727;51.974;20.868;2023-05-10T03:09:37;10.38;;;5.35;;
38937;SDS011;24727;51.974;20.868;2023-05-10T03:12:07;10.70;;;5.28;;
38937;SDS011;24727;51.974;20.868;2023-05-10T03:14:53;11.63;;;5.75;;
38937;SDS011;24727;51.974;20.868;2023-05-10T03:20:31;11.20;;;4.85;;
38937;SDS011;24727;51.974;20.868;2023-05-10T03:23:12;11.18;;;4.97;;
38937;SDS011;24727;51.974;20.868;2023-05-10T03:25:39;12.32;;;6.43;;
38937;SDS011;24727;51.974;20.868;2023-05-10T03:28:07;11.65;;;5.70;;
38937;SDS011;24727;51.974;20.868;2023-05-10T03:30:36;9.82;;;4.85;;
38937;SDS011;24727;51.974;20.868;2023-05-10T03:33:07;8.35;;;5.13;;
38937;SDS011;24727;51.974;20.868;2023-05-10T03:35:35;9.55;;;5.53;;
38937;SDS011;24727;51.974;20.868;2023-05-10T03:38:01;7.28;;;4.55;;
38937;SDS011;24727;51.974;20.868;2023-05-10T03:40:27;9.45;;;5.22;;
38937;SDS011;24727;51.974;20.868;2023-05-10T03:42:56;7.97;;;4.53;;
38937;SDS011;24727;51.974;20.868;2023-05-10T03:45:23;8.95;;;4.85;;
38937;SDS011;24727;51.974;20.868;2023-05-10T03:47:49;10.93;;;5.50;;
38937;SDS011;24727;51.974;20.868;2023-05-10T03:50:17;10.23;;;5.25;;
38937;SDS011;24727;51.974;20.868;2023-05-10T03:52:43;8.50;;;5.43;;
38937;SDS011;24727;51.974;20.868;2023-05-10T03:55:10;11.27;;;5.90;;
38937;SDS011;24727;51.974;20.868;2023-05-10T03:57:36;11.77;;;5.60;;
38937;SDS011;24727;51.974;20.868;2023-05-10T04:02:31;8.48;;;4.47;;
38937;SDS011;24727;51.974;20.868;2023-05-10T04:04:58;10.63;;;6.47;;
38937;SDS011;24727;51.974;20.868;2023-05-10T04:07:23;10.38;;;5.57;;
38937;SDS011;24727;51.974;20.868;2023-05-10T04:09:49;8.50;;;4.85;;
38937;SDS011;24727;51.974;20.868;2023-05-10T04:12:15;11.23;;;6.20;;
38937;SDS011;24727;51.974;20.868;2023-05-10T04:14:41;10.95;;;6.00;;
38937;SDS011;24727;51.974;20.868;2023-05-10T04:17:08;13.95;;;6.40;;
38937;SDS011;24727;51.974;20.868;2023-05-10T04:19:35;13.40;;;6.55;;
38937;SDS011;24727;51.974;20.868;2023-05-10T04:22:02;15.23;;;6.65;;
38937;SDS011;24727;51.974;20.868;2023-05-10T04:24:28;10.73;;;6.50;;
38937;SDS011;24727;51.974;20.868;2023-05-10T04:26:54;10.30;;;5.63;;
38937;SDS011;24727;51.974;20.868;2023-05-10T04:29:21;11.27;;;6.07;;
38937;SDS011;24727;51.974;20.868;2023-05-10T04:31:47;8.30;;;4.95;;
38937;SDS011;24727;51.974;20.868;2023-05-10T04:34:14;13.20;;;5.32;;
38937;SDS011;24727;51.974;20.868;2023-05-10T04:36:40;10.05;;;5.40;;
38937;SDS011;24727;51.974;20.868;2023-05-10T04:39:07;8.98;;;5.47;;
38937;SDS011;24727;51.974;20.868;2023-05-10T04:41:34;8.73;;;5.53;;
38937;SDS011;24727;51.974;20.868;2023-05-10T04:44:00;10.98;;;4.90;;
38937;SDS011;24727;51.974;20.868;2023-05-10T04:46:26;10.73;;;4.80;;
38937;SDS011;24727;51.974;20.868;2023-05-10T04:48:52;10.40;;;5.50;;
38937;SDS011;24727;51.974;20.868;2023-05-10T04:51:25;8.48;;;5.38;;
38937;SDS011;24727;51.974;20.868;2023-05-10T04:53:51;13.18;;;5.32;;
38937;SDS011;24727;51.974;20.868;2023-05-10T04:56:18;7.60;;;4.82;;
38937;SDS011;24727;51.974;20.868;2023-05-10T04:58:44;9.73;;;4.35;;
38937;SDS011;24727;51.974;20.868;2023-05-10T05:01:11;8.48;;;4.30;;
38937;SDS011;24727;51.974;20.868;2023-05-10T05:03:37;10.20;;;4.72;;
38937;SDS011;24727;51.974;20.868;2023-05-10T05:06:03;5.65;;;4.00;;
38937;SDS011;24727;51.974;20.868;2023-05-10T05:08:30;7.47;;;4.60;;
38937;SDS011;24727;51.974;20.868;2023-05-10T05:10:56;6.78;;;4.05;;
38937;SDS011;24727;51.974;20.868;2023-05-10T05:13:24;9.70;;;3.90;;
38937;SDS011;24727;51.974;20.868;2023-05-10T05:15:51;8.32;;;3.60;;
38937;SDS011;24727;51.974;20.868;2023-05-10T05:18:18;8.30;;;3.35;;
38937;SDS011;24727;51.974;20.868;2023-05-10T05:20:45;7.43;;;4.03;;
38937;SDS011;24727;51.974;20.868;2023-05-10T05:23:11;6.07;;;3.47;;
38937;SDS011;24727;51.974;20.868;2023-05-10T05:25:37;5.13;;;4.05;;
38937;SDS011;24727;51.974;20.868;2023-05-10T05:28:03;6.93;;;3.72;;
38937;SDS011;24727;51.974;20.868;2023-05-10T05:30:30;5.03;;;3.65;;
38937;SDS011;24727;51.974;20.868;2023-05-10T05:32:56;7.03;;;3.92;;
38937;SDS011;24727;51.974;20.868;2023-05-10T05:35:22;5.72;;;3.97;;
38937;SDS011;24727;51.974;20.868;2023-05-10T05:37:48;7.07;;;3.70;;
38937;SDS011;24727;51.974;20.868;2023-05-10T05:40:15;7.00;;;4.13;;
38937;SDS011;24727;51.974;20.868;2023-05-10T05:42:41;5.75;;;3.35;;
38937;SDS011;24727;51.974;20.868;2023-05-10T05:45:07;6.50;;;3.63;;
38937;SDS011;24727;51.974;20.868;2023-05-10T05:47:38;6.63;;;3.63;;
38937;SDS011;24727;51.974;20.868;2023-05-10T05:50:05;10.05;;;3.58;;
38937;SDS011;24727;51.974;20.868;2023-05-10T05:52:31;36.10;;;3.58;;
38937;SDS011;24727;51.974;20.868;2023-05-10T05:54:58;4.45;;;2.90;;
38937;SDS011;24727;51.974;20.868;2023-05-10T05:57:25;4.93;;;2.60;;
38937;SDS011;24727;51.974;20.868;2023-05-10T05:59:52;6.28;;;3.72;;
38937;SDS011;24727;51.974;20.868;2023-05-10T06:02:18;7.40;;;3.63;;
38937;SDS011;24727;51.974;20.868;2023-05-10T06:04:43;6.32;;;3.03;;
38937;SDS011;24727;51.974;20.868;2023-05-10T06:07:09;5.82;;;2.80;;
38937;SDS011;24727;51.974;20.868;2023-05-10T06:09:35;5.90;;;3.25;;
38937;SDS011;24727;51.974;20.868;2023-05-10T06:12:01;4.80;;;2.72;;
38937;SDS011;24727;51.974;20.868;2023-05-10T06:14:27;4.20;;;3.30;;
38937;SDS011;24727;51.974;20.868;2023-05-10T06:16:53;6.50;;;3.45;;
38937;SDS011;24727;51.974;20.868;2023-05-10T06:19:20;3.90;;;3.10;;
38937;SDS011;24727;51.974;20.868;2023-05-10T06:21:46;6.43;;;3.30;;
38937;SDS011;24727;51.974;20.868;2023-05-10T06:24:13;3.92;;;2.63;;
38937;SDS011;24727;51.974;20.868;2023-05-10T06:26:40;4.40;;;2.63;;
38937;SDS011;24727;51.974;20.868;2023-05-10T06:29:06;3.92;;;3.03;;
38937;SDS011;24727;51.974;20.868;2023-05-10T06:31:33;5.38;;;3.10;;
38937;SDS011;24727;51.974;20.868;2023-05-10T06:33:59;3.90;;;2.88;;
38937;SDS011;24727;51.974;20.868;2023-05-10T06:36:25;7.95;;;3.05;;
38937;SDS011;24727;51.974;20.868;2023-05-10T06:38:52;10.35;;;3.38;;
38937;SDS011;24727;51.974;20.868;2023-05-10T06:41:18;4.07;;;2.80;;
38937;SDS011;24727;51.974;20.868;2023-05-10T06:43:44;6.22;;;3.05;;
38937;SDS011;24727;51.974;20.868;2023-05-10T06:46:10;7.60;;;2.70;;
38937;SDS011;24727;51.974;20.868;2023-05-10T06:48:36;4.88;;;2.17;;
38937;SDS011;24727;51.974;20.868;2023-05-10T06:51:02;4.32;;;2.60;;
38937;SDS011;24727;51.974;20.868;2023-05-10T06:53:29;3.13;;;2.42;;
38937;SDS011;24727;51.974;20.868;2023-05-10T06:55:55;4.35;;;3.00;;
38937;SDS011;24727;51.974;20.868;2023-05-10T06:58:21;8.27;;;3.20;;
38937;SDS011;24727;51.974;20.868;2023-05-10T07:00:49;5.63;;;2.53;;
38937;SDS011;24727;51.974;20.868;2023-05-10T07:03:15;5.00;;;2.40;;
38937;SDS011;24727;51.974;20.868;2023-05-10T07:05:41;3.47;;;2.25;;
38937;SDS011;24727;51.974;20.868;2023-05-10T07:08:07;3.35;;;2.22;;
38937;SDS011;24727;51.974;20.868;2023-05-10T07:10:33;3.78;;;2.70;;
38937;SDS011;24727;51.974;20.868;2023-05-10T07:12:59;8.07;;;2.50;;
38937;SDS011;24727;51.974;20.868;2023-05-10T07:15:28;3.65;;;2.33;;
38937;SDS011;24727;51.974;20.868;2023-05-10T07:17:54;5.03;;;2.28;;
38937;SDS011;24727;51.974;20.868;2023-05-10T07:20:21;4.45;;;2.08;;
38937;SDS011;24727;51.974;20.868;2023-05-10T07:22:47;5.05;;;2.60;;
38937;SDS011;24727;51.974;20.868;2023-05-10T07:25:13;11.38;;;2.20;;
38937;SDS011;24727;51.974;20.868;2023-05-10T07:27:39;3.67;;;2.25;;
38937;SDS011;24727;51.974;20.868;2023-05-10T07:30:06;5.90;;;2.22;;
38937;SDS011;24727;51.974;20.868;2023-05-10T07:32:32;3.60;;;1.80;;
38937;SDS011;24727;51.974;20.868;2023-05-10T07:34:58;3.97;;;1.90;;
38937;SDS011;24727;51.974;20.868;2023-05-10T07:37:24;5.32;;;1.90;;
38937;SDS011;24727;51.974;20.868;2023-05-10T07:39:50;7.03;;;2.22;;
38937;SDS011;24727;51.974;20.868;2023-05-10T07:42:17;2.08;;;1.50;;
38937;SDS011;24727;51.974;20.868;2023-05-10T07:44:43;7.30;;;2.00;;
38937;SDS011;24727;51.974;20.868;2023-05-10T07:47:10;5.60;;;1.55;;
38937;SDS011;24727;51.974;20.868;2023-05-10T07:49:36;7.80;;;2.28;;
38937;SDS011;24727;51.974;20.868;2023-05-10T07:52:03;4.38;;;2.20;;
38937;SDS011;24727;51.974;20.868;2023-05-10T07:54:30;3.72;;;2.08;;
38937;SDS011;24727;51.974;20.868;2023-05-10T07:56:56;4.82;;;1.80;;
38937;SDS011;24727;51.974;20.868;2023-05-10T07:59:22;6.93;;;1.77;;
38937;SDS011;24727;51.974;20.868;2023-05-10T08:01:49;3.47;;;1.52;;
38937;SDS011;24727;51.974;20.868;2023-05-10T08:04:15;8.75;;;1.80;;
38937;SDS011;24727;51.974;20.868;2023-05-10T08:06:41;5.28;;;1.85;;
38937;SDS011;24727;51.974;20.868;2023-05-10T08:09:08;6.28;;;1.33;;
38937;SDS011;24727;51.974;20.868;2023-05-10T08:11:34;7.50;;;1.83;;
38937;SDS011;24727;51.974;20.868;2023-05-10T08:14:01;4.25;;;1.67;;
38937;SDS011;24727;51.974;20.868;2023-05-10T08:16:27;2.85;;;2.17;;
38937;SDS011;24727;51.974;20.868;2023-05-10T08:18:54;5.70;;;2.08;;
38937;SDS011;24727;51.974;20.868;2023-05-10T08:21:20;3.58;;;1.60;;
38937;SDS011;24727;51.974;20.868;2023-05-10T08:23:46;3.05;;;1.50;;
38937;SDS011;24727;51.974;20.868;2023-05-10T08:26:13;8.73;;;1.98;;
38937;SDS011;24727;51.974;20.868;2023-05-10T08:28:39;3.22;;;1.92;;
38937;SDS011;24727;51.974;20.868;2023-05-10T08:33:34;3.28;;;1.58;;
38937;SDS011;24727;51.974;20.868;2023-05-10T08:36:00;4.60;;;1.98;;
38937;SDS011;24727;51.974;20.868;2023-05-10T08:38:26;4.30;;;2.08;;
38937;SDS011;24727;51.974;20.868;2023-05-10T08:40:53;6.82;;;1.90;;
38937;SDS011;24727;51.974;20.868;2023-05-10T08:43:25;1.98;;;1.50;;
38937;SDS011;24727;51.974;20.868;2023-05-10T08:45:54;4.70;;;1.70;;
38937;SDS011;24727;51.974;20.868;2023-05-10T08:48:23;4.00;;;1.77;;
38937;SDS011;24727;51.974;20.868;2023-05-10T08:50:52;3.83;;;1.60;;
38937;SDS011;24727;51.974;20.868;2023-05-10T08:53:20;2.22;;;1.40;;
38937;SDS011;24727;51.974;20.868;2023-05-10T08:55:49;3.13;;;1.30;;
38937;SDS011;24727;51.974;20.868;2023-05-10T08:58:15;5.07;;;2.08;;
38937;SDS011;24727;51.974;20.868;2023-05-10T09:00:43;3.58;;;1.73;;
38937;SDS011;24727;51.974;20.868;2023-05-10T09:03:09;8.20;;;1.70;;
38937;SDS011;24727;51.974;20.868;2023-05-10T09:05:36;3.80;;;1.58;;
38937;SDS011;24727;51.974;20.868;2023-05-10T09:08:02;4.15;;;1.70;;
38937;SDS011;24727;51.974;20.868;2023-05-10T09:10:29;4.72;;;1.77;;
38937;SDS011;24727;51.974;20.868;2023-05-10T09:12:56;3.58;;;1.40;;
38937;SDS011;24727;51.974;20.868;2023-05-10T09:15:23;6.63;;;1.63;;
38937;SDS011;24727;51.974;20.868;2023-05-10T09:17:49;11.65;;;2.00;;
38937;SDS011;24727;51.974;20.868;2023-05-10T09:20:16;4.45;;;1.50;;
38937;SDS011;24727;51.974;20.868;2023-05-10T09:22:43;2.78;;;1.50;;
38937;SDS011;24727;51.974;20.868;2023-05-10T09:27:37;2.95;;;1.30;;
38937;SDS011;24727;51.974;20.868;2023-05-10T09:30:04;1.85;;;1.50;;
38937;SDS011;24727;51.974;20.868;2023-05-10T09:32:44;5.13;;;1.92;;
38937;SDS011;24727;51.974;20.868;2023-05-10T09:35:12;2.58;;;1.48;;
38937;SDS011;24727;51.974;20.868;2023-05-10T09:37:41;8.07;;;1.70;;
38937;SDS011;24727;51.974;20.868;2023-05-10T09:40:12;3.38;;;2.15;;
38937;SDS011;24727;51.974;20.868;2023-05-10T09:42:51;3.60;;;1.38;;
38937;SDS011;24727;51.974;20.868;2023-05-10T09:45:19;6.45;;;1.90;;
38937;SDS011;24727;51.974;20.868;2023-05-10T09:47:46;5.10;;;1.65;;
38937;SDS011;24727;51.974;20.868;2023-05-10T09:50:12;3.58;;;1.38;;
38937;SDS011;24727;51.974;20.868;2023-05-10T09:55:23;11.93;;;2.30;;
38937;SDS011;24727;51.974;20.868;2023-05-10T09:58:12;5.90;;;1.63;;
38937;SDS011;24727;51.974;20.868;2023-05-10T10:00:40;6.78;;;2.35;;
38937;SDS011;24727;51.974;20.868;2023-05-10T10:03:17;10.60;;;2.20;;
38937;SDS011;24727;51.974;20.868;2023-05-10T10:05:44;4.82;;;1.65;;
38937;SDS011;24727;51.974;20.868;2023-05-10T10:08:14;13.75;;;2.13;;
38937;SDS011;24727;51.974;20.868;2023-05-10T10:10:41;3.85;;;1.55;;
38937;SDS011;24727;51.974;20.868;2023-05-10T10:13:09;13.55;;;1.90;;
38937;SDS011;24727;51.974;20.868;2023-05-10T10:15:35;11.88;;;1.70;;
38937;SDS011;24727;51.974;20.868;2023-05-10T10:18:02;4.55;;;1.73;;
38937;SDS011;24727;51.974;20.868;2023-05-10T10:20:29;8.18;;;2.08;;
38937;SDS011;24727;51.974;20.868;2023-05-10T10:22:55;6.10;;;1.70;;
38937;SDS011;24727;51.974;20.868;2023-05-10T10:25:21;4.88;;;1.50;;
38937;SDS011;24727;51.974;20.868;2023-05-10T10:27:49;11.50;;;1.70;;
38937;SDS011;24727;51.974;20.868;2023-05-10T10:35:49;7.55;;;2.25;;
38937;SDS011;24727;51.974;20.868;2023-05-10T10:38:17;6.90;;;2.10;;
38937;SDS011;24727;51.974;20.868;2023-05-10T10:40:44;4.60;;;1.52;;
38937;SDS011;24727;51.974;20.868;2023-05-10T10:43:26;3.83;;;1.85;;
38937;SDS011;24727;51.974;20.868;2023-05-10T10:48:40;2.95;;;1.70;;
38937;SDS011;24727;51.974;20.868;2023-05-10T10:53:38;8.77;;;1.70;;
38937;SDS011;24727;51.974;20.868;2023-05-10T10:56:10;2.72;;;1.33;;
38937;SDS011;24727;51.974;20.868;2023-05-10T10:58:39;7.43;;;1.48;;
38937;SDS011;24727;51.974;20.868;2023-05-10T11:01:13;4.68;;;1.65;;
38937;SDS011;24727;51.974;20.868;2023-05-10T11:03:41;4.32;;;1.77;;
38937;SDS011;24727;51.974;20.868;2023-05-10T11:06:29;6.10;;;2.03;;
38937;SDS011;24727;51.974;20.868;2023-05-10T11:08:59;3.47;;;1.55;;
38937;SDS011;24727;51.974;20.868;2023-05-10T11:11:34;6.07;;;1.70;;
38937;SDS011;24727;51.974;20.868;2023-05-10T11:14:06;5.68;;;1.70;;
38937;SDS011;24727;51.974;20.868;2023-05-10T11:16:42;9.45;;;1.70;;
38937;SDS011;24727;51.974;20.868;2023-05-10T11:19:18;5.32;;;2.50;;
38937;SDS011;24727;51.974;20.868;2023-05-10T11:22:19;8.10;;;2.00;;
38937;SDS011;24727;51.974;20.868;2023-05-10T11:24:39;2.67;;;1.30;;
38937;SDS011;24727;51.974;20.868;2023-05-10T11:27:05;5.75;;;1.60;;
38937;SDS011;24727;51.974;20.868;2023-05-10T11:29:32;3.85;;;1.73;;
38937;SDS011;24727;51.974;20.868;2023-05-10T11:31:58;5.28;;;1.65;;
38937;SDS011;24727;51.974;20.868;2023-05-10T11:37:01;5.38;;;1.85;;
38937;SDS011;24727;51.974;20.868;2023-05-10T11:39:28;4.30;;;1.50;;
38937;SDS011;24727;51.974;20.868;2023-05-10T11:41:57;9.02;;;2.03;;
38937;SDS011;24727;51.974;20.868;2023-05-10T11:44:24;7.55;;;1.73;;
38937;SDS011;24727;51.974;20.868;2023-05-10T11:46:57;6.85;;;1.67;;
38937;SDS011;24727;51.974;20.868;2023-05-10T11:49:28;8.43;;;2.20;;
38937;SDS011;24727;51.974;20.868;2023-05-10T11:52:07;10.32;;;2.22;;
38937;SDS011;24727;51.974;20.868;2023-05-10T11:54:33;6.13;;;1.77;;
38937;SDS011;24727;51.974;20.868;2023-05-10T11:57:02;7.32;;;2.22;;
38937;SDS011;24727;51.974;20.868;2023-05-10T11:59:29;5.38;;;2.00;;
38937;SDS011;24727;51.974;20.868;2023-05-10T12:01:55;4.55;;;1.65;;
38937;SDS011;24727;51.974;20.868;2023-05-10T12:04:21;3.67;;;2.17;;
38937;SDS011;24727;51.974;20.868;2023-05-10T12:06:47;5.22;;;1.65;;
38937;SDS011;24727;51.974;20.868;2023-05-10T12:09:15;10.02;;;1.90;;
38937;SDS011;24727;51.974;20.868;2023-05-10T12:11:42;4.63;;;1.75;;
38937;SDS011;24727;51.974;20.868;2023-05-10T12:14:08;4.68;;;1.73;;
38937;SDS011;24727;51.974;20.868;2023-05-10T12:16:35;4.63;;;1.88;;
38937;SDS011;24727;51.974;20.868;2023-05-10T12:19:01;3.50;;;1.50;;
38937;SDS011;24727;51.974;20.868;2023-05-10T12:21:28;6.57;;;1.95;;
38937;SDS011;24727;51.974;20.868;2023-05-10T12:24:01;4.85;;;2.00;;
38937;SDS011;24727;51.974;20.868;2023-05-10T12:26:29;6.50;;;1.92;;
38937;SDS011;24727;51.974;20.868;2023-05-10T12:29:11;3.08;;;1.55;;
38937;SDS011;24727;51.974;20.868;2023-05-10T12:31:51;6.72;;;1.70;;
38937;SDS011;24727;51.974;20.868;2023-05-10T12:34:25;10.48;;;2.10;;
38937;SDS011;24727;51.974;20.868;2023-05-10T12:36:53;4.80;;;2.40;;
38937;SDS011;24727;51.974;20.868;2023-05-10T12:39:19;3.00;;;1.85;;
38937;SDS011;24727;51.974;20.868;2023-05-10T12:41:46;8.00;;;1.90;;
38937;SDS011;24727;51.974;20.868;2023-05-10T12:44:12;8.77;;;2.00;;
38937;SDS011;24727;51.974;20.868;2023-05-10T12:46:39;4.93;;;1.85;;
38937;SDS011;24727;51.974;20.868;2023-05-10T12:49:05;6.47;;;2.00;;
38937;SDS011;24727;51.974;20.868;2023-05-10T12:51:31;5.95;;;2.65;;
38937;SDS011;24727;51.974;20.868;2023-05-10T12:53:57;4.70;;;1.83;;
38937;SDS011;24727;51.974;20.868;2023-05-10T12:56:24;5.45;;;2.08;;
38937;SDS011;24727;51.974;20.868;2023-05-10T12:58:50;16.25;;;2.42;;
38937;SDS011;24727;51.974;20.868;2023-05-10T13:01:16;3.60;;;1.85;;
38937;SDS011;24727;51.974;20.868;2023-05-10T13:03:42;6.05;;;1.88;;
38937;SDS011;24727;51.974;20.868;2023-05-10T13:06:09;5.45;;;1.95;;
38937;SDS011;24727;51.974;20.868;2023-05-10T13:08:35;5.18;;;1.88;;
38937;SDS011;24727;51.974;20.868;2023-05-10T13:11:02;10.80;;;2.03;;
38937;SDS011;24727;51.974;20.868;2023-05-10T13:13:28;7.50;;;2.00;;
38937;SDS011;24727;51.974;20.868;2023-05-10T13:15:54;5.15;;;2.33;;
38937;SDS011;24727;51.974;20.868;2023-05-10T13:18:20;6.22;;;1.80;;
38937;SDS011;24727;51.974;20.868;2023-05-10T13:20:46;4.72;;;1.88;;
38937;SDS011;24727;51.974;20.868;2023-05-10T13:23:13;5.60;;;3.35;;
38937;SDS011;24727;51.974;20.868;2023-05-10T13:25:39;9.63;;;2.67;;
38937;SDS011;24727;51.974;20.868;2023-05-10T13:28:05;7.22;;;2.00;;
38937;SDS011;24727;51.974;20.868;2023-05-10T13:30:32;5.25;;;1.95;;
38937;SDS011;24727;51.974;20.868;2023-05-10T13:32:58;8.85;;;1.73;;
38937;SDS011;24727;51.974;20.868;2023-05-10T13:35:25;9.23;;;2.10;;
38937;SDS011;24727;51.974;20.868;2023-05-10T13:37:52;8.93;;;2.50;;
38937;SDS011;24727;51.974;20.868;2023-05-10T13:40:19;7.50;;;1.85;;
38937;SDS011;24727;51.974;20.868;2023-05-10T13:42:45;6.60;;;1.90;;
38937;SDS011;24727;51.974;20.868;2023-05-10T13:45:12;10.60;;;2.47;;
38937;SDS011;24727;51.974;20.868;2023-05-10T13:47:39;5.00;;;1.65;;
38937;SDS011;24727;51.974;20.868;2023-05-10T13:50:06;3.20;;;1.75;;
38937;SDS011;24727;51.974;20.868;2023-05-10T13:52:32;3.50;;;1.65;;
38937;SDS011;24727;51.974;20.868;2023-05-10T13:57:30;4.50;;;1.50;;
38937;SDS011;24727;51.974;20.868;2023-05-10T13:59:56;4.88;;;1.75;;
38937;SDS011;24727;51.974;20.868;2023-05-10T14:02:22;9.48;;;2.95;;
38937;SDS011;24727;51.974;20.868;2023-05-10T14:04:49;4.30;;;1.52;;
38937;SDS011;24727;51.974;20.868;2023-05-10T14:07:15;11.80;;;2.17;;
38937;SDS011;24727;51.974;20.868;2023-05-10T14:09:41;6.18;;;2.05;;
38937;SDS011;24727;51.974;20.868;2023-05-10T14:12:07;12.35;;;2.22;;
38937;SDS011;24727;51.974;20.868;2023-05-10T14:14:33;6.40;;;1.58;;
38937;SDS011;24727;51.974;20.868;2023-05-10T14:17:00;6.57;;;2.40;;
38937;SDS011;24727;51.974;20.868;2023-05-10T14:19:26;5.07;;;1.85;;
38937;SDS011;24727;51.974;20.868;2023-05-10T14:21:53;3.30;;;1.88;;
38937;SDS011;24727;51.974;20.868;2023-05-10T14:24:19;5.35;;;2.00;;
38937;SDS011;24727;51.974;20.868;2023-05-10T14:26:44;5.38;;;1.77;;
38937;SDS011;24727;51.974;20.868;2023-05-10T14:29:10;6.95;;;1.63;;
38937;SDS011;24727;51.974;20.868;2023-05-10T14:31:37;4.20;;;2.03;;
38937;SDS011;24727;51.974;20.868;2023-05-10T14:34:03;5.07;;;1.48;;
38937;SDS011;24727;51.974;20.868;2023-05-10T14:36:29;4.22;;;1.73;;
38937;SDS011;24727;51.974;20.868;2023-05-10T14:38:55;8.32;;;1.90;;
38937;SDS011;24727;51.974;20.868;2023-05-10T14:41:22;5.97;;;1.83;;
38937;SDS011;24727;51.974;20.868;2023-05-10T14:43:50;5.30;;;1.95;;
38937;SDS011;24727;51.974;20.868;2023-05-10T14:46:17;2.95;;;1.73;;
38937;SDS011;24727;51.974;20.868;2023-05-10T14:48:43;5.22;;;1.70;;
38937;SDS011;24727;51.974;20.868;2023-05-10T14:51:09;3.53;;;1.67;;
38937;SDS011;24727;51.974;20.868;2023-05-10T14:53:43;8.68;;;2.58;;
38937;SDS011;24727;51.974;20.868;2023-05-10T14:56:09;6.35;;;2.70;;
38937;SDS011;24727;51.974;20.868;2023-05-10T14:58:35;8.90;;;2.20;;
38937;SDS011;24727;51.974;20.868;2023-05-10T15:01:01;2.72;;;1.95;;
38937;SDS011;24727;51.974;20.868;2023-05-10T15:03:27;7.32;;;2.40;;
38937;SDS011;24727;51.974;20.868;2023-05-10T15:05:54;3.92;;;1.80;;
38937;SDS011;24727;51.974;20.868;2023-05-10T15:08:21;4.88;;;1.70;;
38937;SDS011;24727;51.974;20.868;2023-05-10T15:10:48;3.80;;;1.90;;
38937;SDS011;24727;51.974;20.868;2023-05-10T15:13:14;1.58;;;1.48;;
38937;SDS011;24727;51.974;20.868;2023-05-10T15:15:40;4.22;;;2.70;;
38937;SDS011;24727;51.974;20.868;2023-05-10T15:18:09;4.85;;;2.60;;
38937;SDS011;24727;51.974;20.868;2023-05-10T15:20:36;7.25;;;1.70;;
38937;SDS011;24727;51.974;20.868;2023-05-10T15:23:03;6.63;;;2.03;;
38937;SDS011;24727;51.974;20.868;2023-05-10T15:25:29;4.57;;;2.30;;
38937;SDS011;24727;51.974;20.868;2023-05-10T15:27:54;7.35;;;2.10;;